Time;durP1;ratioP1;P1;durP2;ratioP2;P2;SDS_P1;SDS_P2;PMS_P1;PMS_P2;Temp;Humidity;BMP_temperature;BMP_pressure;BME280_temperature;BME280_humidity;BME280_pressure;Samples;Min_cycle;Max_cycle;Signal;HPM_P1;HPM_P2
2024/03/17 00:00:18;;;;;;;0.10;0.10;;;6.50;99.90;;;;;;5052480;28;20033;-80
2024/03/17 00:02:44;;;;;;;0.22;0.22;;;6.30;99.90;;;;;;5058106;28;20052;-79
2024/03/17 00:05:11;;;;;;;0.25;0.25;;;6.20;99.90;;;;;;5049228;28;20497;-80
2024/03/17 00:07:37;;;;;;;0.35;0.35;;;6.10;99.90;;;;;;5055894;28;20025;-80
2024/03/17 00:10:04;;;;;;;0.50;0.50;;;6.10;99.90;;;;;;5057828;28;20067;-79
2024/03/17 00:12:30;;;;;;;0.88;0.82;;;6.10;99.90;;;;;;5052389;28;20047;-78
2024/03/17 00:14:56;;;;;;;0.28;0.28;;;6.10;99.90;;;;;;5057387;28;20029;-77
2024/03/17 00:17:23;;;;;;;0.30;0.30;;;6.10;99.90;;;;;;5052215;28;20025;-79
2024/03/17 00:19:49;;;;;;;0.10;0.10;;;6.10;1.00;;;;;;5053343;28;20044;-80
2024/03/17 00:22:15;;;;;;;0.20;0.20;;;6.00;99.90;;;;;;5054307;28;20033;-79
2024/03/17 00:24:43;;;;;;;0.30;0.30;;;5.80;99.90;;;;;;5054177;28;20358;-80
2024/03/17 00:27:11;;;;;;;1.45;0.68;;;5.80;1.00;;;;;;5059251;28;20029;-80
2024/03/17 00:29:40;;;;;;;0.73;0.63;;;5.70;1.00;;;;;;5054889;28;20047;-79
2024/03/17 00:32:06;;;;;;;0.50;0.50;;;5.70;1.00;;;;;;5053327;28;20040;-79
2024/03/17 00:34:33;;;;;;;0.10;0.10;;;5.60;1.00;;;;;;5051501;28;20036;-79
2024/03/17 00:37:02;;;;;;;1.45;0.43;;;5.60;1.00;;;;;;5054548;28;20039;-78
2024/03/17 00:39:29;;;;;;;0.20;0.20;;;5.50;1.00;;;;;;5057211;28;20056;-79
2024/03/17 00:41:55;;;;;;;6.40;2.20;;;5.40;1.00;;;;;;5052834;28;20041;-79
2024/03/17 00:44:21;;;;;;;1.08;0.90;;;5.50;1.00;;;;;;5052732;28;20359;-79
2024/03/17 00:46:48;;;;;;;0.32;0.30;;;5.40;1.00;;;;;;5051361;28;20036;-79
2024/03/17 00:49:14;;;;;;;0.20;0.20;;;5.30;1.00;;;;;;5051148;28;20615;-79
2024/03/17 00:51:43;;;;;;;0.13;0.13;;;5.30;1.00;;;;;;5054346;28;20040;-79
2024/03/17 00:54:10;;;;;;;0.25;0.25;;;5.20;1.00;;;;;;5049183;28;20489;-80
2024/03/17 00:56:36;;;;;;;0.35;0.35;;;5.20;1.00;;;;;;5056205;28;20037;-81
2024/03/17 00:59:02;;;;;;;0.63;0.63;;;5.00;1.00;;;;;;5050247;28;20056;-79
2024/03/17 01:01:28;;;;;;;0.20;0.20;;;5.00;1.00;;;;;;5049993;28;20044;-79
2024/03/17 01:03:55;;;;;;;1.35;1.25;;;5.10;27.70;;;;;;5053910;28;20398;-77
2024/03/17 01:06:21;;;;;;;0.52;0.22;;;5.00;33.90;;;;;;5053411;28;20037;-80
2024/03/17 01:08:48;;;;;;;0.17;0.17;;;4.90;35.60;;;;;;5057203;28;20043;-79
2024/03/17 01:11:17;;;;;;;0.30;0.30;;;4.80;78.70;;;;;;5058657;28;20025;-80
2024/03/17 01:13:43;;;;;;;1.17;0.65;;;4.80;99.90;;;;;;5053653;28;20040;-79
2024/03/17 01:16:09;;;;;;;0.68;0.68;;;4.80;99.90;;;;;;5055625;28;20045;-80
2024/03/17 01:18:37;;;;;;;0.47;0.47;;;4.80;99.90;;;;;;5051673;28;20033;-81
2024/03/17 01:21:03;;;;;;;0.70;0.70;;;4.80;99.90;;;;;;5053577;28;20033;-80
2024/03/17 01:23:29;;;;;;;0.70;0.70;;;4.80;99.90;;;;;;5051086;28;20044;-79
2024/03/17 01:25:56;;;;;;;2.15;0.65;;;4.80;99.90;;;;;;5049376;28;20036;-77
2024/03/17 01:28:22;;;;;;;0.73;0.73;;;4.80;99.90;;;;;;5060413;28;20037;-79
2024/03/17 01:30:48;;;;;;;0.20;0.20;;;4.80;99.90;;;;;;5054055;28;20024;-79
2024/03/17 01:33:15;;;;;;;0.35;0.35;;;4.70;99.90;;;;;;5051570;28;20044;-79
2024/03/17 01:35:41;;;;;;;0.60;0.60;;;4.70;99.90;;;;;;5053240;28;20036;-80
2024/03/17 01:38:07;;;;;;;0.15;0.15;;;4.70;99.90;;;;;;5056002;28;20028;-80
2024/03/17 01:40:33;;;;;;;0.70;0.68;;;4.60;99.90;;;;;;5057268;28;20056;-79
2024/03/17 01:42:59;;;;;;;0.43;0.30;;;4.70;99.90;;;;;;5052843;28;20041;-79
2024/03/17 01:45:31;;;;;;;0.20;0.20;;;4.70;99.90;;;;;;5059422;28;20406;-79
2024/03/17 01:47:59;;;;;;;0.20;0.20;;;4.70;99.90;;;;;;5054485;28;20040;-77
2024/03/17 01:50:33;;;;;;;0.10;0.10;;;4.70;99.90;;;;;;5052384;28;20048;-79
2024/03/17 01:53:03;;;;;;;0.60;0.60;;;4.60;99.90;;;;;;5053614;28;20044;-79
2024/03/17 01:55:30;;;;;;;0.10;0.10;;;4.50;99.90;;;;;;5051755;28;20485;-79
2024/03/17 01:57:56;;;;;;;0.10;0.10;;;4.30;99.90;;;;;;5054944;28;20359;-79
2024/03/17 02:00:23;;;;;;;0.10;0.10;;;4.20;99.90;;;;;;5056969;28;20035;-80
2024/03/17 02:02:49;;;;;;;0.15;0.15;;;4.10;99.90;;;;;;5051455;28;20048;-79
2024/03/17 02:05:15;;;;;;;1.13;0.85;;;4.00;99.90;;;;;;5056210;28;20037;-80
2024/03/17 02:07:41;;;;;;;0.70;0.70;;;4.00;99.90;;;;;;5054348;28;20025;-79
2024/03/17 02:10:08;;;;;;;0.30;0.30;;;4.00;99.90;;;;;;5057351;28;20041;-79
2024/03/17 02:12:35;;;;;;;0.15;0.15;;;4.00;99.90;;;;;;5060752;28;20032;-80
2024/03/17 02:15:05;;;;;;;0.20;0.20;;;4.00;99.90;;;;;;5061989;28;20460;-80
2024/03/17 02:17:32;;;;;;;0.85;0.57;;;3.90;99.90;;;;;;5056859;28;20056;-80
2024/03/17 02:19:59;;;;;;;0.20;0.20;;;3.90;99.90;;;;;;5056239;28;20037;-76
2024/03/17 02:22:27;;;;;;;0.10;0.10;;;3.90;99.90;;;;;;5060013;28;20048;-80
2024/03/17 02:24:54;;;;;;;0.20;0.20;;;3.80;99.90;;;;;;5057584;28;20036;-80
2024/03/17 02:27:20;;;;;;;0.32;0.32;;;3.70;1.00;;;;;;5057541;28;20260;-79
2024/03/17 02:29:46;;;;;;;0.30;0.30;;;3.60;1.00;;;;;;5064615;28;20025;-79
2024/03/17 02:32:12;;;;;;;0.28;0.28;;;3.60;1.00;;;;;;5055449;28;20033;-80
2024/03/17 02:34:39;;;;;;;0.30;0.30;;;3.60;1.00;;;;;;5059403;28;20397;-79
2024/03/17 02:37:06;;;;;;;0.30;0.30;;;3.50;1.00;;;;;;5055410;28;20037;-79
2024/03/17 02:39:36;;;;;;;1.55;1.17;;;3.40;1.00;;;;;;5057561;28;20032;-79
2024/03/17 02:42:08;;;;;;;0.10;0.10;;;3.40;1.00;;;;;;5061460;28;20047;-79
2024/03/17 02:44:36;;;;;;;0.35;0.35;;;3.50;1.00;;;;;;5053892;28;20037;-80
2024/03/17 02:47:04;;;;;;;1.65;1.45;;;3.40;1.00;;;;;;5056449;28;20024;-80
2024/03/17 02:49:36;;;;;;;1.98;1.88;;;3.60;1.00;;;;;;5054978;28;20033;-80
2024/03/17 02:52:07;;;;;;;0.10;0.10;;;3.60;1.00;;;;;;5056563;28;20045;-80
2024/03/17 02:54:35;;;;;;;0.57;0.32;;;3.40;1.00;;;;;;5058556;28;20033;-81
2024/03/17 02:57:02;;;;;;;0.43;0.43;;;3.40;1.00;;;;;;5055738;28;20040;-80
2024/03/17 02:59:28;;;;;;;0.38;0.38;;;3.50;1.00;;;;;;5058427;28;20040;-80
2024/03/17 03:01:55;;;;;;;2.35;1.55;;;3.50;1.00;;;;;;5059491;28;20040;-80
2024/03/17 03:04:21;;;;;;;0.25;0.25;;;3.50;1.00;;;;;;5053801;28;20037;-80
2024/03/17 03:06:48;;;;;;;0.38;0.38;;;3.50;1.00;;;;;;5056479;28;20044;-80
2024/03/17 03:09:20;;;;;;;0.35;0.35;;;3.40;99.90;;;;;;5057250;28;20069;-80
2024/03/17 03:11:47;;;;;;;0.35;0.32;;;3.40;99.90;;;;;;5058969;28;20037;-80
2024/03/17 03:14:13;;;;;;;0.77;0.40;;;3.30;99.90;;;;;;5057623;28;20037;-80
2024/03/17 03:16:39;;;;;;;0.55;0.55;;;3.30;99.90;;;;;;5049254;28;20049;-80
2024/03/17 03:19:05;;;;;;;0.20;0.20;;;3.20;99.90;;;;;;5053009;28;20390;-80
2024/03/17 03:21:31;;;;;;;0.50;0.50;;;3.20;99.90;;;;;;5069421;28;20041;-80
2024/03/17 03:23:57;;;;;;;1.17;1.17;;;3.20;1.00;;;;;;5059732;28;20466;-80
2024/03/17 03:26:24;;;;;;;0.40;0.40;;;3.40;1.00;;;;;;5057505;28;20055;-80
2024/03/17 03:28:50;;;;;;;0.40;0.40;;;3.40;1.00;;;;;;5057243;28;20051;-80
2024/03/17 03:31:17;;;;;;;0.50;0.30;;;3.50;1.00;;;;;;5057872;28;20063;-78
2024/03/17 03:33:43;;;;;;;0.28;0.28;;;3.50;1.00;;;;;;5053898;28;20049;-81
2024/03/17 03:36:10;;;;;;;0.55;0.55;;;3.50;1.00;;;;;;5053893;28;20397;-77
2024/03/17 03:38:37;;;;;;;2.35;1.65;;;3.50;99.90;;;;;;5056416;28;20032;-78
2024/03/17 03:41:07;;;;;;;0.10;0.10;;;3.50;99.90;;;;;;5055653;28;20371;-80
2024/03/17 03:43:33;;;;;;;0.67;0.67;;;3.40;99.90;;;;;;5059054;28;20041;-80
2024/03/17 03:46:01;;;;;;;1.55;0.82;;;3.40;99.90;;;;;;5051605;28;20629;-77
2024/03/17 03:48:28;;;;;;;0.10;0.10;;;3.40;99.90;;;;;;5052457;28;20032;-80
2024/03/17 03:50:56;;;;;;;1.20;0.40;;;3.20;99.90;;;;;;5054105;28;20139;-80
2024/03/17 03:53:23;;;;;;;0.70;0.70;;;3.30;99.90;;;;;;5056600;28;20041;-80
2024/03/17 03:55:49;;;;;;;0.80;0.80;;;3.20;99.90;;;;;;5057524;28;20049;-79
2024/03/17 03:58:15;;;;;;;0.57;0.47;;;3.10;99.90;;;;;;5050918;28;20037;-80
2024/03/17 04:00:41;;;;;;;0.30;0.30;;;3.10;99.90;;;;;;5057556;28;20033;-80
2024/03/17 04:03:07;;;;;;;0.65;0.45;;;3.00;99.90;;;;;;5051617;28;20041;-80
2024/03/17 04:05:34;;;;;;;0.10;0.10;;;2.90;99.90;;;;;;5054236;28;20039;-80
2024/03/17 04:08:00;;;;;;;0.25;0.25;;;3.00;99.90;;;;;;5049780;28;20039;-80
2024/03/17 04:10:27;;;;;;;0.10;0.10;;;2.90;99.90;;;;;;5056441;28;20048;-80
2024/03/17 04:12:53;;;;;;;0.20;0.20;;;2.70;99.90;;;;;;5056452;28;20033;-80
2024/03/17 04:15:19;;;;;;;0.38;0.38;;;2.70;99.90;;;;;;5055200;28;20359;-80
2024/03/17 04:17:46;;;;;;;0.45;0.45;;;2.80;99.90;;;;;;5050698;28;20393;-80
2024/03/17 04:20:13;;;;;;;0.20;0.20;;;2.80;99.90;;;;;;5052876;28;20444;-80
2024/03/17 04:22:40;;;;;;;0.77;0.57;;;2.70;99.90;;;;;;5054853;28;20064;-81
2024/03/17 04:25:09;;;;;;;1.95;1.25;;;2.70;99.90;;;;;;5057593;28;20041;-80
2024/03/17 04:27:35;;;;;;;0.10;0.10;;;2.70;99.90;;;;;;5057733;28;20029;-80
2024/03/17 04:30:02;;;;;;;0.43;0.43;;;2.70;99.90;;;;;;5052642;28;20056;-80
2024/03/17 04:32:28;;;;;;;0.32;0.32;;;2.70;99.90;;;;;;5051431;28;20029;-80
2024/03/17 04:34:54;;;;;;;1.17;0.77;;;2.70;99.90;;;;;;5067688;28;20033;-80
2024/03/17 04:37:20;;;;;;;2.33;0.65;;;2.60;99.90;;;;;;5053530;28;20028;-80
2024/03/17 04:39:47;;;;;;;0.17;0.17;;;2.50;99.90;;;;;;5055272;28;20033;-80
2024/03/17 04:42:14;;;;;;;1.60;1.50;;;2.40;99.90;;;;;;5053441;28;20037;-80
2024/03/17 04:44:42;;;;;;;0.73;0.73;;;2.20;99.90;;;;;;5056213;28;20396;-81
2024/03/17 04:47:08;;;;;;;0.13;0.13;;;2.10;99.90;;;;;;5049821;28;20032;-80
2024/03/17 04:49:38;;;;;;;0.90;0.47;;;2.00;99.90;;;;;;5051637;28;20037;-81
2024/03/17 04:52:05;;;;;;;4.13;1.47;;;2.00;1.00;;;;;;5053458;28;20033;-79
2024/03/17 04:54:32;;;;;;;0.50;0.50;;;2.10;1.00;;;;;;5052123;28;20271;-80
2024/03/17 04:56:58;;;;;;;1.15;1.05;;;2.10;1.00;;;;;;5058284;28;20036;-78
2024/03/17 04:59:24;;;;;;;0.60;0.60;;;2.10;1.00;;;;;;5059042;28;20032;-80
2024/03/17 05:01:51;;;;;;;0.30;0.30;;;2.10;1.00;;;;;;5056414;28;20028;-80
2024/03/17 05:04:18;;;;;;;0.57;0.57;;;2.20;1.00;;;;;;5054881;28;20040;-80
2024/03/17 05:06:47;;;;;;;0.55;0.55;;;2.20;1.00;;;;;;5053403;28;20390;-80
2024/03/17 05:09:13;;;;;;;0.50;0.50;;;2.30;1.00;;;;;;5054088;28;20449;-80
2024/03/17 05:11:42;;;;;;;0.13;0.13;;;2.30;9.00;;;;;;5055351;28;20032;-81
2024/03/17 05:14:09;;;;;;;0.77;0.73;;;2.40;10.90;;;;;;5054912;28;20045;-78
2024/03/17 05:16:35;;;;;;;0.40;0.40;;;2.50;38.80;;;;;;5056824;28;20036;-80
2024/03/17 05:19:03;;;;;;;0.10;0.10;;;2.60;23.80;;;;;;5050305;28;20029;-80
2024/03/17 05:21:30;;;;;;;0.20;0.20;;;2.60;1.00;;;;;;5054357;28;20040;-80
2024/03/17 05:24:00;;;;;;;0.20;0.20;;;2.60;1.00;;;;;;5054278;28;20084;-80
2024/03/17 05:26:26;;;;;;;0.20;0.20;;;2.60;1.00;;;;;;5055932;28;20291;-80
2024/03/17 05:28:53;;;;;;;0.40;0.40;;;2.60;1.00;;;;;;5057327;28;20043;-80
2024/03/17 05:31:21;;;;;;;1.38;0.90;;;2.70;1.00;;;;;;5055949;28;20036;-80
2024/03/17 05:33:48;;;;;;;3.60;0.85;;;2.70;1.00;;;;;;5057242;28;20500;-80
2024/03/17 05:36:14;;;;;;;0.95;0.93;;;2.80;1.00;;;;;;5052725;28;20029;-80
2024/03/17 05:38:41;;;;;;;2.67;1.58;;;2.80;1.00;;;;;;5056035;28;20390;-80
2024/03/17 05:41:09;;;;;;;0.22;0.22;;;2.90;1.00;;;;;;5054447;28;20049;-78
2024/03/17 05:43:37;;;;;;;0.17;0.17;;;2.90;1.00;;;;;;5052580;28;20052;-79
2024/03/17 05:46:11;;;;;;;0.15;0.15;;;2.90;1.00;;;;;;5055945;28;20029;-79
2024/03/17 05:48:41;;;;;;;0.35;0.35;;;2.90;1.00;;;;;;5049075;28;20036;-80
2024/03/17 05:51:08;;;;;;;0.20;0.20;;;2.90;1.00;;;;;;5051483;28;20026;-75
2024/03/17 05:53:36;;;;;;;0.68;0.68;;;3.00;1.00;;;;;;5054635;28;20033;-80
2024/03/17 05:56:03;;;;;;;1.08;0.85;;;3.10;1.00;;;;;;5054280;28;20029;-80
2024/03/17 05:58:30;;;;;;;0.30;0.30;;;3.10;1.00;;;;;;5057245;28;20040;-79
2024/03/17 06:00:56;;;;;;;2.00;0.98;;;3.20;99.90;;;;;;5053532;28;20350;-79
2024/03/17 06:03:22;;;;;;;0.40;0.40;;;3.30;99.90;;;;;;5052039;28;20052;-79
2024/03/17 06:05:48;;;;;;;0.52;0.52;;;3.30;99.90;;;;;;5052769;28;20033;-79
2024/03/17 06:08:15;;;;;;;0.10;0.10;;;3.30;99.90;;;;;;5053406;28;20040;-79
2024/03/17 06:10:46;;;;;;;0.40;0.40;;;3.40;99.90;;;;;;5056842;28;20052;-79
2024/03/17 06:13:15;;;;;;;0.90;0.50;;;3.50;99.90;;;;;;5053922;28;20044;-78
2024/03/17 06:15:41;;;;;;;0.75;0.75;;;3.60;99.90;;;;;;5052968;28;20048;-80
2024/03/17 06:18:12;;;;;;;1.30;1.15;;;3.70;99.90;;;;;;5047969;28;20033;-79
2024/03/17 06:20:43;;;;;;;0.40;0.40;;;3.70;99.90;;;;;;5065955;28;20052;-79
2024/03/17 06:23:13;;;;;;;0.40;0.40;;;3.80;99.90;;;;;;5054443;28;20054;-79
2024/03/17 06:25:41;;;;;;;0.77;0.68;;;3.90;99.90;;;;;;5053214;28;20056;-79
2024/03/17 06:28:09;;;;;;;0.32;0.32;;;3.90;99.90;;;;;;5052707;28;20032;-78
2024/03/17 06:30:36;;;;;;;0.32;0.20;;;4.00;99.90;;;;;;5053414;28;20036;-79
2024/03/17 06:33:03;;;;;;;0.35;0.35;;;4.10;99.90;;;;;;5051138;28;20037;-79
2024/03/17 06:35:30;;;;;;;0.32;0.32;;;4.10;99.90;;;;;;5052322;28;20032;-79
2024/03/17 06:38:00;;;;;;;6.63;1.75;;;4.20;99.90;;;;;;5052741;28;20040;-79
2024/03/17 06:40:26;;;;;;;1.10;1.02;;;4.30;95.00;;;;;;5056723;28;20051;-79
2024/03/17 06:42:53;;;;;;;0.93;0.73;;;4.30;85.60;;;;;;5055619;28;20041;-80
2024/03/17 06:45:20;;;;;;;0.10;0.10;;;4.30;68.80;;;;;;5053062;28;20359;-80
2024/03/17 06:47:46;;;;;;;0.20;0.20;;;4.50;89.00;;;;;;5050002;28;20485;-80
2024/03/17 06:50:13;;;;;;;0.20;0.20;;;4.50;53.90;;;;;;5054038;28;20029;-77
2024/03/17 06:52:39;;;;;;;0.55;0.55;;;4.60;65.80;;;;;;5058205;28;20405;-79
2024/03/17 06:55:06;;;;;;;0.85;0.75;;;4.80;70.20;;;;;;5057448;28;20033;-79
2024/03/17 06:57:33;;;;;;;0.38;0.38;;;5.00;37.20;;;;;;5052670;28;20041;-79
2024/03/17 07:00:01;;;;;;;0.88;0.82;;;5.40;6.20;;;;;;5059759;28;20025;-80
2024/03/17 07:02:27;;;;;;;0.47;0.47;;;5.80;1.00;;;;;;5053339;28;20033;-80
2024/03/17 07:04:53;;;;;;;0.75;0.75;;;6.00;1.00;;;;;;5054824;28;20029;-80
2024/03/17 07:07:19;;;;;;;0.40;0.40;;;6.20;1.00;;;;;;5053442;28;20382;-80
2024/03/17 07:09:47;;;;;;;3.47;0.40;;;6.30;99.90;;;;;;5058252;28;20032;-81
2024/03/17 07:12:13;;;;;;;0.13;0.13;;;6.50;99.90;;;;;;5059569;28;20028;-80
2024/03/17 07:14:39;;;;;;;0.10;0.10;;;6.80;99.90;;;;;;5053405;28;20036;-80
2024/03/17 07:17:06;;;;;;;0.38;0.38;;;7.10;99.90;;;;;;5057304;28;20045;-80
2024/03/17 07:19:34;;;;;;;0.28;0.28;;;7.10;99.90;;;;;;5053293;28;20052;-80
2024/03/17 07:22:00;;;;;;;0.40;0.40;;;7.30;99.90;;;;;;5056550;28;20029;-80
2024/03/17 07:24:27;;;;;;;0.22;0.22;;;7.50;99.90;;;;;;5057022;28;20033;-80
2024/03/17 07:26:53;;;;;;;0.10;0.10;;;7.80;89.70;;;;;;5055828;28;20462;-80
2024/03/17 07:29:19;;;;;;;0.20;0.20;;;7.80;31.00;;;;;;5058874;28;20040;-80
2024/03/17 07:31:46;;;;;;;0.10;0.10;;;7.80;61.70;;;;;;5059407;28;20029;-80
2024/03/17 07:34:12;;;;;;;0.50;0.50;;;8.00;99.10;;;;;;5053234;28;20421;-79
2024/03/17 07:36:39;;;;;;;0.20;0.20;;;8.30;17.00;;;;;;5055845;28;20033;-79
2024/03/17 07:39:07;;;;;;;0.50;0.50;;;8.60;1.00;;;;;;5057460;28;20039;-79
2024/03/17 07:41:33;;;;;;;0.45;0.45;;;8.60;1.00;;;;;;5068876;28;20053;-79
2024/03/17 07:43:59;;;;;;;0.50;0.45;;;8.40;1.00;;;;;;5058319;28;20036;-80
2024/03/17 07:46:25;;;;;;;0.10;0.10;;;8.30;1.00;;;;;;5056578;28;20025;-80
2024/03/17 07:48:51;;;;;;;0.22;0.22;;;8.40;1.00;;;;;;5055458;28;20070;-80
2024/03/17 07:51:18;;;;;;;0.30;0.30;;;8.70;1.00;;;;;;5055117;28;20056;-81
2024/03/17 07:53:47;;;;;;;0.38;0.38;;;9.00;99.90;;;;;;5057920;28;20037;-78
2024/03/17 07:56:14;;;;;;;0.55;0.55;;;9.30;99.90;;;;;;5057812;28;20039;-79
2024/03/17 07:58:42;;;;;;;0.73;0.30;;;9.30;99.90;;;;;;5056239;28;20037;-80
2024/03/17 08:01:13;;;;;;;0.10;0.10;;;9.30;99.90;;;;;;5058525;28;20044;-80
2024/03/17 08:03:41;;;;;;;0.75;0.75;;;9.30;99.90;;;;;;5051652;28;20052;-80
2024/03/17 08:06:08;;;;;;;5.82;1.05;;;9.40;99.90;;;;;;5054762;28;20025;-80
2024/03/17 08:08:35;;;;;;;0.43;0.43;;;9.50;99.90;;;;;;5054685;28;20044;-80
2024/03/17 08:11:04;;;;;;;0.55;0.55;;;9.50;99.90;;;;;;5058970;28;20032;-80
2024/03/17 08:13:35;;;;;;;0.75;0.57;;;9.50;99.90;;;;;;5060666;28;20460;-80
2024/03/17 08:16:05;;;;;;;0.20;0.20;;;9.60;99.90;;;;;;5056229;28;20362;-80
2024/03/17 08:18:32;;;;;;;0.75;0.55;;;9.70;99.90;;;;;;5056236;28;20394;-80
2024/03/17 08:21:01;;;;;;;0.40;0.40;;;9.80;99.90;;;;;;5051638;28;20032;-80
2024/03/17 08:23:27;;;;;;;0.47;0.28;;;9.80;99.90;;;;;;5054235;28;20047;-80
2024/03/17 08:25:57;;;;;;;0.52;0.50;;;10.00;99.90;;;;;;5058284;28;20029;-80
2024/03/17 08:28:25;;;;;;;0.20;0.20;;;10.30;75.60;;;;;;5050147;28;20029;-80
2024/03/17 08:30:55;;;;;;;0.30;0.30;;;10.60;99.90;;;;;;5056956;28;20025;-80
2024/03/17 08:33:22;;;;;;;3.40;1.00;;;10.70;1.00;;;;;;5059287;28;20371;-80
2024/03/17 08:35:55;;;;;;;0.85;0.85;;;10.50;12.60;;;;;;5053840;28;20359;-81
2024/03/17 08:38:23;;;;;;;1.45;0.50;;;10.50;1.00;;;;;;5054576;28;20398;-80
2024/03/17 08:40:53;;;;;;;0.30;0.25;;;10.60;1.00;;;;;;5052224;28;20056;-81
2024/03/17 08:43:21;;;;;;;1.38;1.27;;;11.00;1.00;;;;;;5043194;28;20049;-81
2024/03/17 08:46:04;;;;;;;0.68;0.43;;;11.30;1.00;;;;;;5058279;28;20021;-81
2024/03/17 08:48:33;;;;;;;1.98;0.60;;;11.10;1.00;;;;;;5048343;28;20025;-81
2024/03/17 08:51:01;;;;;;;0.32;0.30;;;10.60;1.00;;;;;;5053619;28;20024;-81
2024/03/17 08:53:28;;;;;;;0.13;0.13;;;10.70;1.00;;;;;;5052313;28;20044;-87
2024/03/17 08:55:55;;;;;;;0.30;0.30;;;11.10;1.00;;;;;;5055987;28;20120;-79
2024/03/17 08:58:22;;;;;;;0.57;0.57;;;10.80;1.00;;;;;;5047823;28;20056;-80
2024/03/17 09:00:48;;;;;;;0.57;0.50;;;10.80;1.00;;;;;;5049078;28;20028;-80
2024/03/17 09:03:15;;;;;;;1.73;1.10;;;11.20;1.00;;;;;;5051342;28;20048;-77
2024/03/17 09:05:46;;;;;;;1.35;1.05;;;11.60;99.90;;;;;;5052178;28;20383;-79
2024/03/17 09:08:22;;;;;;;;;;;11.70;99.90;;;;;;5054508;28;20044;-79
2024/03/17 09:10:55;;;;;;;0.20;0.20;;;11.70;99.90;;;;;;5055062;28;19919;-79
2024/03/17 09:13:23;;;;;;;0.35;0.35;;;11.90;99.90;;;;;;5053120;28;20070;-78
2024/03/17 09:15:59;;;;;;;0.80;0.55;;;11.80;99.90;;;;;;5058173;28;20025;-79
2024/03/17 09:18:29;;;;;;;0.93;0.80;;;11.70;99.90;;;;;;5047681;28;20037;-79
2024/03/17 09:21:00;;;;;;;0.32;0.32;;;11.40;99.90;;;;;;5053172;28;20033;-78
2024/03/17 09:23:28;;;;;;;0.35;0.25;;;11.60;99.90;;;;;;5051240;28;20037;-79
2024/03/17 09:26:11;;;;;;;0.98;0.90;;;11.60;99.90;;;;;;5054550;28;20029;-79
2024/03/17 09:28:37;;;;;;;0.57;0.57;;;11.50;1.00;;;;;;5057294;28;20653;-79
2024/03/17 09:31:06;;;;;;;0.85;0.63;;;11.80;99.90;;;;;;5050452;28;20033;-79
2024/03/17 09:33:34;;;;;;;0.60;0.60;;;12.00;99.90;;;;;;5053561;28;20402;-78
2024/03/17 09:36:08;;;;;;;0.47;0.45;;;12.30;99.90;;;;;;5053115;28;20490;-79
2024/03/17 09:38:35;;;;;;;0.40;0.25;;;12.60;99.90;;;;;;5049538;28;20393;-80
2024/03/17 09:41:02;;;;;;;0.60;0.45;;;12.70;99.90;;;;;;5058579;28;20048;-77
2024/03/17 09:43:29;;;;;;;0.65;0.65;;;12.80;99.90;;;;;;5059090;28;20088;-77
2024/03/17 09:45:57;;;;;;;1.15;0.40;;;13.00;99.90;;;;;;5050915;28;20025;-77
2024/03/17 09:48:28;;;;;;;0.20;0.20;;;12.70;99.90;;;;;;5055041;28;20377;-77
2024/03/17 09:50:56;;;;;;;0.40;0.38;;;13.20;99.90;;;;;;5066047;28;20029;-77
2024/03/17 09:53:30;;;;;;;0.95;0.20;;;13.40;99.90;;;;;;5055462;28;20462;-76
2024/03/17 09:55:58;;;;;;;0.35;0.35;;;13.30;99.90;;;;;;5058696;28;20033;-77
2024/03/17 09:58:24;;;;;;;0.75;0.75;;;12.90;99.90;;;;;;5052825;28;20477;-76
2024/03/17 10:00:50;;;;;;;0.50;0.50;;;12.60;99.90;;;;;;5056983;28;20040;-76
2024/03/17 10:03:42;;;;;;;0.28;0.28;;;12.50;99.90;;;;;;5055106;28;20051;-77
2024/03/17 10:06:13;;;;;;;1.40;1.30;;;12.90;99.90;;;;;;5055831;28;20021;-78
2024/03/17 10:08:42;;;;;;;;;;;13.20;99.90;;;;;;5049176;28;20040;-76
2024/03/17 10:11:08;;;;;;;4.60;0.82;;;13.40;99.90;;;;;;5072070;28;19932;-78
2024/03/17 10:13:34;;;;;;;0.43;0.40;;;13.60;99.90;;;;;;5068755;28;20067;-76
2024/03/17 10:16:00;;;;;;;0.63;0.43;;;13.80;99.90;;;;;;5062226;28;20029;-78
2024/03/17 10:18:27;;;;;;;0.45;0.45;;;14.00;99.90;;;;;;5048993;28;20025;-76
2024/03/17 10:20:56;;;;;;;0.77;0.77;;;13.90;99.90;;;;;;5052526;28;20056;-75
2024/03/17 10:23:23;;;;;;;0.40;0.40;;;13.50;99.90;;;;;;5054473;28;20044;-75
2024/03/17 10:25:49;;;;;;;0.22;0.22;;;13.50;99.90;;;;;;5060468;28;20037;-77
2024/03/17 10:28:18;;;;;;;1.35;0.80;;;13.70;99.90;;;;;;5058003;28;20351;-76
2024/03/17 10:30:58;;;;;;;4.20;0.80;;;13.80;99.90;;;;;;5055531;28;20056;-77
2024/03/17 10:33:26;;;;;;;2.20;1.02;;;14.00;99.90;;;;;;5053290;28;20033;-74
2024/03/17 10:36:00;;;;;;;0.20;0.20;;;14.30;99.90;;;;;;5055749;28;20040;-76
2024/03/17 10:38:28;;;;;;;0.63;0.40;;;14.40;99.90;;;;;;5051907;28;20052;-76
2024/03/17 10:40:54;;;;;;;0.68;0.68;;;14.20;99.90;;;;;;5059350;28;20049;-75
2024/03/17 10:43:24;;;;;;;2.58;1.20;;;14.00;99.90;;;;;;5055578;28;20045;-75
2024/03/17 10:45:55;;;;;;;4.85;0.88;;;14.00;99.90;;;;;;5055444;28;20466;-75
2024/03/17 10:48:26;;;;;;;0.55;0.40;;;14.00;99.90;;;;;;5065770;28;20071;-74
2024/03/17 10:50:57;;;;;;;1.10;0.40;;;13.80;99.90;;;;;;5053020;28;20037;-75
2024/03/17 10:53:27;;;;;;;0.30;0.30;;;13.90;99.90;;;;;;5055238;28;20036;-75
2024/03/17 10:56:08;;;;;;;0.57;0.57;;;14.20;99.90;;;;;;5057086;28;20041;-75
2024/03/17 10:58:36;;;;;;;0.50;0.25;;;14.40;99.90;;;;;;5052262;28;20454;-75
2024/03/17 11:01:04;;;;;;;1.45;1.05;;;14.50;99.90;;;;;;5053658;28;20024;-75
2024/03/17 11:03:32;;;;;;;2.28;0.93;;;14.30;99.90;;;;;;5051352;28;20041;-75
2024/03/17 11:06:00;;;;;;;0.38;0.38;;;14.00;99.90;;;;;;5053414;28;20025;-75
2024/03/17 11:08:27;;;;;;;0.32;0.30;;;13.90;99.90;;;;;;5068337;28;20048;-75
2024/03/17 11:10:55;;;;;;;0.60;0.55;;;13.80;99.90;;;;;;5058697;28;20049;-75
2024/03/17 11:13:26;;;;;;;0.40;0.40;;;14.00;99.90;;;;;;5055818;28;20033;-74
2024/03/17 11:15:55;;;;;;;0.38;0.30;;;14.00;99.90;;;;;;5053734;28;20055;-74
2024/03/17 11:18:21;;;;;;;1.13;0.77;;;14.00;99.90;;;;;;5049160;28;20778;-74
2024/03/17 11:20:58;;;;;;;0.20;0.20;;;14.30;99.90;;;;;;5052846;28;20478;-75
2024/03/17 11:23:29;;;;;;;1.48;0.90;;;14.30;99.90;;;;;;5051178;28;20032;-74
2024/03/17 11:25:57;;;;;;;4.97;0.93;;;14.40;99.90;;;;;;5058130;28;20025;-75
2024/03/17 11:28:44;;;;;;;1.95;0.77;;;14.50;99.90;;;;;;5052916;28;20025;-75
2024/03/17 11:31:40;;;;;;;0.20;0.20;;;14.60;99.90;;;;;;5054162;28;20028;-75
2024/03/17 11:34:26;;;;;;;1.27;0.75;;;14.50;99.90;;;;;;5051521;28;20033;-75
2024/03/17 11:36:53;;;;;;;1.20;0.30;;;14.20;99.90;;;;;;5049029;28;20580;-75
2024/03/17 11:39:27;;;;;;;0.45;0.45;;;14.20;99.90;;;;;;5055621;28;20029;-74
2024/03/17 11:41:54;;;;;;;0.15;0.13;;;14.30;99.90;;;;;;5057051;28;20040;-74
2024/03/17 11:44:20;;;;;;;0.77;0.30;;;14.20;99.90;;;;;;5057012;28;20040;-75
2024/03/17 11:47:00;;;;;;;0.50;0.50;;;14.10;99.90;;;;;;5056079;28;20470;-76
2024/03/17 11:49:33;;;;;;;4.80;0.70;;;14.10;99.90;;;;;;5052619;28;20025;-75
2024/03/17 11:52:02;;;;;;;0.17;0.17;;;14.10;99.90;;;;;;5054268;28;20032;-75
2024/03/17 11:54:31;;;;;;;0.25;0.20;;;14.30;99.90;;;;;;5052448;28;20466;-75
2024/03/17 11:57:02;;;;;;;0.40;0.40;;;14.50;99.90;;;;;;5051650;28;20028;-75
2024/03/17 11:59:29;;;;;;;0.25;0.25;;;14.50;99.90;;;;;;5050960;28;20029;-75
2024/03/17 12:01:55;;;;;;;0.90;0.75;;;14.60;99.90;;;;;;5053156;28;20043;-76
2024/03/17 12:04:24;;;;;;;0.28;0.25;;;14.60;99.90;;;;;;5049568;28;20037;-76
2024/03/17 12:06:56;;;;;;;0.50;0.47;;;14.70;99.90;;;;;;5063648;28;20033;-77
2024/03/17 12:09:25;;;;;;;0.57;0.20;;;14.60;99.90;;;;;;5051444;28;20033;-78
2024/03/17 12:12:06;;;;;;;1.27;1.05;;;14.60;99.90;;;;;;5048088;28;20033;-77
2024/03/17 12:14:33;;;;;;;0.90;0.63;;;14.70;99.90;;;;;;5048441;28;20043;-78
2024/03/17 12:17:01;;;;;;;0.40;0.30;;;14.40;99.90;;;;;;5050091;28;20431;-78
2024/03/17 12:19:28;;;;;;;0.28;0.28;;;14.50;99.90;;;;;;5054503;28;20037;-77
2024/03/17 12:21:56;;;;;;;0.10;0.10;;;14.70;99.90;;;;;;5056791;28;20036;-77
2024/03/17 12:24:28;;;;;;;0.77;0.40;;;14.70;99.90;;;;;;5052316;28;20556;-77
2024/03/17 12:26:56;;;;;;;0.63;0.30;;;14.70;99.90;;;;;;5054443;28;20041;-77
2024/03/17 12:29:30;;;;;;;1.67;1.02;;;14.70;99.90;;;;;;5053262;28;20044;-76
2024/03/17 12:31:58;;;;;;;1.10;0.60;;;14.00;99.90;;;;;;5053435;28;20043;-77
2024/03/17 12:34:30;;;;;;;0.30;0.30;;;14.30;99.90;;;;;;5053669;28;20043;-76
2024/03/17 12:36:58;;;;;;;4.15;0.30;;;14.40;99.90;;;;;;5054215;28;20033;-76
2024/03/17 12:39:34;;;;;;;0.40;0.40;;;14.30;99.90;;;;;;5057496;28;20025;-76
2024/03/17 12:42:06;;;;;;;0.70;0.68;;;14.40;99.90;;;;;;5070853;28;20047;-77
2024/03/17 12:44:34;;;;;;;0.20;0.20;;;14.40;99.90;;;;;;5076108;28;20049;-76
2024/03/17 12:47:03;;;;;;;0.80;0.50;;;14.50;99.90;;;;;;5054220;28;20021;-76
2024/03/17 12:49:30;;;;;;;0.20;0.20;;;14.60;99.90;;;;;;5055351;28;20033;-76
2024/03/17 12:51:57;;;;;;;0.52;0.52;;;14.80;99.90;;;;;;5051207;28;20030;-78
2024/03/17 12:54:25;;;;;;;0.35;0.30;;;14.70;99.90;;;;;;5053394;28;20041;-77
2024/03/17 13:02:33;;;;;;;0.20;0.20;;;14.90;99.90;;;;;;5047281;28;20029;-80
2024/03/17 13:05:26;;;;;;;1.77;1.13;;;14.60;99.90;;;;;;5046317;28;20036;-77
2024/03/17 13:07:57;;;;;;;0.20;0.20;;;14.60;99.90;;;;;;5048112;28;20052;-76